sensor_id;sensor_type;location;lat;lon;timestamp;pressure;altitude;pressure_sealevel;temperature;humidity
16100;BME280;8154;50.830;12.082;2023-06-14T00:01:00;99327.81;;;29.92;32.19
16100;BME280;8154;50.830;12.082;2023-06-14T00:03:30;99326.44;;;29.90;32.07
16100;BME280;8154;50.830;12.082;2023-06-14T00:05:57;99323.75;;;29.90;32.16
16100;BME280;8154;50.830;12.082;2023-06-14T00:08:24;99335.00;;;29.87;32.39
16100;BME280;8154;50.830;12.082;2023-06-14T00:10:51;99324.22;;;29.87;32.09
16100;BME280;8154;50.830;12.082;2023-06-14T00:13:17;99313.22;;;29.88;32.16
16100;BME280;8154;50.830;12.082;2023-06-14T00:15:43;99323.75;;;29.90;32.42
16100;BME280;8154;50.830;12.082;2023-06-14T00:18:09;99315.06;;;29.88;32.23
16100;BME280;8154;50.830;12.082;2023-06-14T00:20:37;99318.84;;;29.87;32.39
16100;BME280;8154;50.830;12.082;2023-06-14T00:23:03;99321.28;;;29.88;32.12
16100;BME280;8154;50.830;12.082;2023-06-14T00:25:31;99318.00;;;29.86;32.48
16100;BME280;8154;50.830;12.082;2023-06-14T00:27:58;99320.47;;;29.88;32.53
16100;BME280;8154;50.830;12.082;2023-06-14T00:30:25;99316.16;;;29.87;32.39
16100;BME280;8154;50.830;12.082;2023-06-14T00:32:56;99317.78;;;29.88;32.50
16100;BME280;8154;50.830;12.082;2023-06-14T00:35:23;99320.47;;;29.88;32.45
16100;BME280;8154;50.830;12.082;2023-06-14T00:37:49;99320.72;;;29.86;32.39
16100;BME280;8154;50.830;12.082;2023-06-14T00:40:15;99317.19;;;29.86;32.21
16100;BME280;8154;50.830;12.082;2023-06-14T00:42:42;99308.06;;;29.87;32.09
16100;BME280;8154;50.830;12.082;2023-06-14T00:45:09;99318.00;;;29.86;32.31
16100;BME280;8154;50.830;12.082;2023-06-14T00:47:37;99317.41;;;29.84;32.45
16100;BME280;8154;50.830;12.082;2023-06-14T00:50:07;99310.66;;;29.82;32.13
16100;BME280;8154;50.830;12.082;2023-06-14T00:52:35;99315.78;;;29.83;32.22
16100;BME280;8154;50.830;12.082;2023-06-14T00:55:02;99324.94;;;29.82;32.50
16100;BME280;8154;50.830;12.082;2023-06-14T00:57:29;99323.06;;;29.83;32.06
16100;BME280;8154;50.830;12.082;2023-06-14T00:59:55;99323.88;;;29.83;32.41
16100;BME280;8154;50.830;12.082;2023-06-14T01:02:22;99330.34;;;29.82;32.42
16100;BME280;8154;50.830;12.082;2023-06-14T01:04:51;99323.53;;;29.80;32.45
16100;BME280;8154;50.830;12.082;2023-06-14T01:10:07;99322.97;;;29.78;32.41
16100;BME280;8154;50.830;12.082;2023-06-14T01:15:45;99323.06;;;29.83;32.32
16100;BME280;8154;50.830;12.082;2023-06-14T01:18:12;99334.91;;;29.82;32.40
16100;BME280;8154;50.830;12.082;2023-06-14T01:20:44;99327.06;;;29.80;32.17
16100;BME280;8154;50.830;12.082;2023-06-14T01:23:11;99329.75;;;29.80;32.39
16100;BME280;8154;50.830;12.082;2023-06-14T01:25:41;99330.81;;;29.79;32.37
16100;BME280;8154;50.830;12.082;2023-06-14T01:28:10;99323.53;;;29.80;32.00
16100;BME280;8154;50.830;12.082;2023-06-14T01:30:42;99321.09;;;29.78;32.07
16100;BME280;8154;50.830;12.082;2023-06-14T01:33:19;99325.44;;;29.79;32.52
16100;BME280;8154;50.830;12.082;2023-06-14T01:35:51;99321.09;;;29.78;32.54
16100;BME280;8154;50.830;12.082;2023-06-14T01:38:21;99323.06;;;29.83;32.07
16100;BME280;8154;50.830;12.082;2023-06-14T01:40:48;99322.75;;;29.79;32.12
16100;BME280;8154;50.830;12.082;2023-06-14T01:43:16;99327.31;;;29.79;32.46
16100;BME280;8154;50.830;12.082;2023-06-14T01:45:45;99324.03;;;29.77;32.45
16100;BME280;8154;50.830;12.082;2023-06-14T01:48:13;99319.47;;;29.77;32.01
16100;BME280;8154;50.830;12.082;2023-06-14T01:50:39;99324.03;;;29.77;32.17
16100;BME280;8154;50.830;12.082;2023-06-14T01:53:10;99321.56;;;29.75;32.15
16100;BME280;8154;50.830;12.082;2023-06-14T01:55:36;99322.41;;;29.76;32.10
16100;BME280;8154;50.830;12.082;2023-06-14T01:58:10;99331.84;;;29.78;32.16
16100;BME280;8154;50.830;12.082;2023-06-14T02:00:36;99329.16;;;29.78;32.01
16100;BME280;8154;50.830;12.082;2023-06-14T02:03:02;99325.69;;;29.78;32.08
16100;BME280;8154;50.830;12.082;2023-06-14T02:05:30;99334.31;;;29.80;32.17
16100;BME280;8154;50.830;12.082;2023-06-14T02:07:56;99325.19;;;29.81;32.05
16100;BME280;8154;50.830;12.082;2023-06-14T02:10:22;99328.13;;;29.79;32.12
16100;BME280;8154;50.830;12.082;2023-06-14T02:12:48;99336.44;;;29.78;32.05
16100;BME280;8154;50.830;12.082;2023-06-14T02:15:16;99335.63;;;29.77;32.33
16100;BME280;8154;50.830;12.082;2023-06-14T02:17:46;99326.72;;;29.77;32.38
16100;BME280;8154;50.830;12.082;2023-06-14T02:20:15;99334.78;;;29.77;32.10
16100;BME280;8154;50.830;12.082;2023-06-14T02:22:41;99336.94;;;29.75;32.32
16100;BME280;8154;50.830;12.082;2023-06-14T02:25:08;99338.56;;;29.76;32.32
16100;BME280;8154;50.830;12.082;2023-06-14T02:27:34;99333.75;;;29.78;31.94
16100;BME280;8154;50.830;12.082;2023-06-14T02:30:01;99336.69;;;29.76;32.35
16100;BME280;8154;50.830;12.082;2023-06-14T02:32:27;99345.56;;;29.77;31.96
16100;BME280;8154;50.830;12.082;2023-06-14T02:34:54;99338.56;;;29.76;32.07
16100;BME280;8154;50.830;12.082;2023-06-14T02:37:20;99348.50;;;29.75;32.32
16100;BME280;8154;50.830;12.082;2023-06-14T02:39:46;99342.06;;;29.76;32.01
16100;BME280;8154;50.830;12.082;2023-06-14T02:42:12;99343.59;;;29.72;32.07
16100;BME280;8154;50.830;12.082;2023-06-14T02:44:38;99346.88;;;29.74;32.44
16100;BME280;8154;50.830;12.082;2023-06-14T02:47:05;99359.28;;;29.75;32.30
16100;BME280;8154;50.830;12.082;2023-06-14T02:49:31;99356.34;;;29.77;32.02
16100;BME280;8154;50.830;12.082;2023-06-14T02:51:57;99357.19;;;29.77;31.97
16100;BME280;8154;50.830;12.082;2023-06-14T02:54:24;99358.97;;;29.72;32.19
16100;BME280;8154;50.830;12.082;2023-06-14T02:56:50;99360.00;;;29.71;32.02
16100;BME280;8154;50.830;12.082;2023-06-14T02:59:16;99356.47;;;29.70;32.18
16100;BME280;8154;50.830;12.082;2023-06-14T03:01:42;99363.16;;;29.68;32.10
16100;BME280;8154;50.830;12.082;2023-06-14T03:04:09;99367.72;;;29.67;32.08
16100;BME280;8154;50.830;12.082;2023-06-14T03:06:35;99368.56;;;29.68;32.13
16100;BME280;8154;50.830;12.082;2023-06-14T03:09:03;99370.44;;;29.67;32.28
16100;BME280;8154;50.830;12.082;2023-06-14T03:11:32;99380.72;;;29.70;31.96
16100;BME280;8154;50.830;12.082;2023-06-14T03:14:00;99376.63;;;29.68;31.96
16100;BME280;8154;50.830;12.082;2023-06-14T03:16:26;99376.41;;;29.69;32.12
16100;BME280;8154;50.830;12.082;2023-06-14T03:18:54;99380.41;;;29.67;32.02
16100;BME280;8154;50.830;12.082;2023-06-14T03:21:20;99374.78;;;29.68;31.94
16100;BME280;8154;50.830;12.082;2023-06-14T03:23:48;99378.50;;;29.67;32.12
16100;BME280;8154;50.830;12.082;2023-06-14T03:26:15;99381.88;;;29.63;32.43
16100;BME280;8154;50.830;12.082;2023-06-14T03:28:46;99386.25;;;29.64;32.09
16100;BME280;8154;50.830;12.082;2023-06-14T03:31:13;99387.88;;;29.65;32.34
16100;BME280;8154;50.830;12.082;2023-06-14T03:33:39;99385.66;;;29.62;32.40
16100;BME280;8154;50.830;12.082;2023-06-14T03:36:06;99387.28;;;29.63;32.32
16100;BME280;8154;50.830;12.082;2023-06-14T03:38:35;99389.97;;;29.63;32.30
16100;BME280;8154;50.830;12.082;2023-06-14T03:41:01;99391.25;;;29.60;32.36
16100;BME280;8154;50.830;12.082;2023-06-14T03:43:27;99387.97;;;29.58;32.17
16100;BME280;8154;50.830;12.082;2023-06-14T03:45:55;99396.06;;;29.58;32.13
16100;BME280;8154;50.830;12.082;2023-06-14T03:48:22;99396.53;;;29.55;32.09
16100;BME280;8154;50.830;12.082;2023-06-14T03:50:48;99402.75;;;29.56;32.22
16100;BME280;8154;50.830;12.082;2023-06-14T03:53:14;99396.78;;;29.54;32.08
16100;BME280;8154;50.830;12.082;2023-06-14T03:55:40;99401.56;;;29.52;32.38
16100;BME280;8154;50.830;12.082;2023-06-14T03:58:07;99401.38;;;29.53;32.31
16100;BME280;8154;50.830;12.082;2023-06-14T04:00:33;99401.56;;;29.52;32.41
16100;BME280;8154;50.830;12.082;2023-06-14T04:02:59;99407.44;;;29.49;32.29
16100;BME280;8154;50.830;12.082;2023-06-14T04:05:25;99406.16;;;29.51;32.49
16100;BME280;8154;50.830;12.082;2023-06-14T04:07:52;99410.72;;;29.51;32.15
16100;BME280;8154;50.830;12.082;2023-06-14T04:10:21;99413.41;;;29.51;32.52
16100;BME280;8154;50.830;12.082;2023-06-14T04:12:47;99414.72;;;29.48;32.39
16100;BME280;8154;50.830;12.082;2023-06-14T04:15:14;99410.34;;;29.47;32.21
16100;BME280;8154;50.830;12.082;2023-06-14T04:17:40;99410.59;;;29.46;32.28
16100;BME280;8154;50.830;12.082;2023-06-14T04:20:06;99409.31;;;29.48;32.22
16100;BME280;8154;50.830;12.082;2023-06-14T04:22:35;99417.41;;;29.48;32.48
16100;BME280;8154;50.830;12.082;2023-06-14T04:25:02;99414.47;;;29.50;32.28
16100;BME280;8154;50.830;12.082;2023-06-14T04:27:29;99417.53;;;29.53;32.27
16100;BME280;8154;50.830;12.082;2023-06-14T04:29:57;99421.97;;;29.59;32.33
16100;BME280;8154;50.830;12.082;2023-06-14T04:32:26;99422.44;;;29.56;32.22
16100;BME280;8154;50.830;12.082;2023-06-14T04:34:53;99421.38;;;29.57;32.34
16100;BME280;8154;50.830;12.082;2023-06-14T04:37:21;99420.53;;;29.57;32.50
16100;BME280;8154;50.830;12.082;2023-06-14T04:39:48;99415.28;;;29.62;32.39
16100;BME280;8154;50.830;12.082;2023-06-14T04:42:14;99424.97;;;29.63;32.37
16100;BME280;8154;50.830;12.082;2023-06-14T04:44:41;99421.72;;;29.61;32.12
16100;BME280;8154;50.830;12.082;2023-06-14T04:47:08;99423.97;;;29.64;32.51
16100;BME280;8154;50.830;12.082;2023-06-14T04:49:34;99416.81;;;29.58;32.38
16100;BME280;8154;50.830;12.082;2023-06-14T04:52:00;99418.69;;;29.57;32.30
16100;BME280;8154;50.830;12.082;2023-06-14T04:54:27;99422.06;;;29.64;32.32
16100;BME280;8154;50.830;12.082;2023-06-14T04:56:53;99423.75;;;29.65;32.50
16100;BME280;8154;50.830;12.082;2023-06-14T04:59:21;99423.97;;;29.64;32.49
16100;BME280;8154;50.830;12.082;2023-06-14T05:01:50;99426.19;;;29.67;32.12
16100;BME280;8154;50.830;12.082;2023-06-14T05:04:18;99423.25;;;29.68;32.13
16100;BME280;8154;50.830;12.082;2023-06-14T05:06:45;99425.47;;;29.71;32.44
16100;BME280;8154;50.830;12.082;2023-06-14T05:09:12;99423.38;;;29.73;32.20
16100;BME280;8154;50.830;12.082;2023-06-14T05:11:39;99430.16;;;29.76;32.37
16100;BME280;8154;50.830;12.082;2023-06-14T05:14:06;99425.91;;;29.80;32.30
16100;BME280;8154;50.830;12.082;2023-06-14T05:16:32;99428.13;;;29.83;32.06
16100;BME280;8154;50.830;12.082;2023-06-14T05:18:58;99422.75;;;29.83;32.46
16100;BME280;8154;50.830;12.082;2023-06-14T05:21:25;99430.34;;;29.86;32.08
16100;BME280;8154;50.830;12.082;2023-06-14T05:23:51;99428.50;;;29.86;32.08
16100;BME280;8154;50.830;12.082;2023-06-14T05:26:19;99432.50;;;29.84;32.51
16100;BME280;8154;50.830;12.082;2023-06-14T05:28:45;99438.44;;;29.86;32.44
16100;BME280;8154;50.830;12.082;2023-06-14T05:31:11;99434.34;;;29.83;32.22
16100;BME280;8154;50.830;12.082;2023-06-14T05:33:37;99437.03;;;29.83;32.28
16100;BME280;8154;50.830;12.082;2023-06-14T05:36:03;99441.59;;;29.83;32.29
16100;BME280;8154;50.830;12.082;2023-06-14T05:38:30;99448.41;;;29.85;32.68
16100;BME280;8154;50.830;12.082;2023-06-14T05:40:56;99446.88;;;29.89;32.42
16100;BME280;8154;50.830;12.082;2023-06-14T05:43:22;99456.63;;;29.90;32.50
16100;BME280;8154;50.830;12.082;2023-06-14T05:45:48;99460.69;;;29.93;32.18
16100;BME280;8154;50.830;12.082;2023-06-14T05:48:14;99459.63;;;29.94;32.63
16100;BME280;8154;50.830;12.082;2023-06-14T05:50:40;99455.66;;;29.96;32.62
16100;BME280;8154;50.830;12.082;2023-06-14T05:53:06;99458.34;;;29.96;32.68
16100;BME280;8154;50.830;12.082;2023-06-14T05:55:32;99455.97;;;30.00;32.66
16100;BME280;8154;50.830;12.082;2023-06-14T05:57:59;99452.50;;;29.99;32.42
16100;BME280;8154;50.830;12.082;2023-06-14T06:00:26;99448.97;;;29.99;32.60
16100;BME280;8154;50.830;12.082;2023-06-14T06:02:52;99456.22;;;29.98;32.67
16100;BME280;8154;50.830;12.082;2023-06-14T06:05:18;99455.41;;;29.98;32.67
16100;BME280;8154;50.830;12.082;2023-06-14T06:07:46;99452.97;;;29.96;32.78
16100;BME280;8154;50.830;12.082;2023-06-14T06:10:12;99464.00;;;29.95;32.65
16100;BME280;8154;50.830;12.082;2023-06-14T06:12:38;99460.22;;;29.96;32.53
16100;BME280;8154;50.830;12.082;2023-06-14T06:15:04;99461.28;;;29.95;32.86
16100;BME280;8154;50.830;12.082;2023-06-14T06:17:30;99470.53;;;29.99;32.55
16100;BME280;8154;50.830;12.082;2023-06-14T06:19:57;99464.91;;;30.00;32.57
16100;BME280;8154;50.830;12.082;2023-06-14T06:22:23;99468.41;;;30.01;32.82
16100;BME280;8154;50.830;12.082;2023-06-14T06:24:49;99468.66;;;29.99;32.95
16100;BME280;8154;50.830;12.082;2023-06-14T06:27:15;99473.22;;;29.99;33.00
16100;BME280;8154;50.830;12.082;2023-06-14T06:29:42;99472.75;;;30.02;32.70
16100;BME280;8154;50.830;12.082;2023-06-14T06:32:09;99470.41;;;30.05;32.93
16100;BME280;8154;50.830;12.082;2023-06-14T06:34:36;99476.03;;;30.04;32.78
16100;BME280;8154;50.830;12.082;2023-06-14T06:37:03;99484.22;;;30.09;32.98
16100;BME280;8154;50.830;12.082;2023-06-14T06:39:30;99484.22;;;30.09;33.00
16100;BME280;8154;50.830;12.082;2023-06-14T06:41:56;99482.56;;;30.08;33.03
16100;BME280;8154;50.830;12.082;2023-06-14T06:44:22;99484.56;;;30.12;32.56
16100;BME280;8154;50.830;12.082;2023-06-14T06:46:49;99488.91;;;30.13;32.52
16100;BME280;8154;50.830;12.082;2023-06-14T06:49:15;99487.00;;;30.14;32.57
16100;BME280;8154;50.830;12.082;2023-06-14T06:51:41;99488.91;;;30.13;32.70
16100;BME280;8154;50.830;12.082;2023-06-14T06:54:09;99490.28;;;30.16;32.93
16100;BME280;8154;50.830;12.082;2023-06-14T06:56:35;99492.75;;;30.17;32.87
16100;BME280;8154;50.830;12.082;2023-06-14T06:59:01;99494.63;;;30.17;32.91
16100;BME280;8154;50.830;12.082;2023-06-14T07:01:28;99491.13;;;30.16;33.02
16100;BME280;8154;50.830;12.082;2023-06-14T07:03:55;99492.16;;;30.15;33.04
16100;BME280;8154;50.830;12.082;2023-06-14T07:06:21;99502.25;;;30.20;32.88
16100;BME280;8154;50.830;12.082;2023-06-14T07:08:47;99499.09;;;30.23;33.00
16100;BME280;8154;50.830;12.082;2023-06-14T07:11:17;99509.06;;;30.22;32.62
16100;BME280;8154;50.830;12.082;2023-06-14T07:13:43;99508.00;;;30.23;32.87
16100;BME280;8154;50.830;12.082;2023-06-14T07:16:09;99503.69;;;30.22;32.71
16100;BME280;8154;50.830;12.082;2023-06-14T07:18:35;99509.31;;;30.21;32.76
16100;BME280;8154;50.830;12.082;2023-06-14T07:21:03;99504.72;;;30.21;32.77
16100;BME280;8154;50.830;12.082;2023-06-14T07:23:30;99510.94;;;30.22;32.66
16100;BME280;8154;50.830;12.082;2023-06-14T07:25:56;99505.91;;;30.25;32.58
16100;BME280;8154;50.830;12.082;2023-06-14T07:28:22;99506.81;;;30.31;32.90
16100;BME280;8154;50.830;12.082;2023-06-14T07:30:48;99505.41;;;30.28;32.98
16100;BME280;8154;50.830;12.082;2023-06-14T07:33:14;99512.09;;;30.26;32.69
16100;BME280;8154;50.830;12.082;2023-06-14T07:35:40;99509.38;;;30.26;32.78
16100;BME280;8154;50.830;12.082;2023-06-14T07:38:07;99518.53;;;30.25;32.97
16100;BME280;8154;50.830;12.082;2023-06-14T07:40:33;99517.47;;;30.26;33.06
16100;BME280;8154;50.830;12.082;2023-06-14T07:42:59;99517.84;;;30.29;33.06
16100;BME280;8154;50.830;12.082;2023-06-14T07:45:25;99517.03;;;30.29;32.71
16100;BME280;8154;50.830;12.082;2023-06-14T07:47:51;99522.97;;;30.31;33.08
16100;BME280;8154;50.830;12.082;2023-06-14T07:50:18;99515.47;;;30.33;32.94
16100;BME280;8154;50.830;12.082;2023-06-14T07:52:45;99510.69;;;30.35;33.01
16100;BME280;8154;50.830;12.082;2023-06-14T07:55:11;99510.69;;;30.35;32.96
16100;BME280;8154;50.830;12.082;2023-06-14T07:57:38;99505.03;;;30.36;32.90
16100;BME280;8154;50.830;12.082;2023-06-14T08:00:04;99515.59;;;30.38;32.83
16100;BME280;8154;50.830;12.082;2023-06-14T08:02:33;99503.75;;;30.39;32.59
16100;BME280;8154;50.830;12.082;2023-06-14T08:05:01;99500.81;;;30.40;32.68
16100;BME280;8154;50.830;12.082;2023-06-14T08:07:27;99513.22;;;30.41;32.63
16100;BME280;8154;50.830;12.082;2023-06-14T08:09:53;99513.81;;;30.43;32.63
16100;BME280;8154;50.830;12.082;2023-06-14T08:12:19;99518.84;;;30.40;32.69
16100;BME280;8154;50.830;12.082;2023-06-14T08:14:45;99511.34;;;30.42;33.08
16100;BME280;8154;50.830;12.082;2023-06-14T08:17:12;99507.59;;;30.43;32.69
16100;BME280;8154;50.830;12.082;2023-06-14T08:19:38;99509.25;;;30.44;32.90
16100;BME280;8154;50.830;12.082;2023-06-14T08:22:05;99510.88;;;30.45;32.98
16100;BME280;8154;50.830;12.082;2023-06-14T08:24:31;99507.94;;;30.47;32.95
16100;BME280;8154;50.830;12.082;2023-06-14T08:26:57;99511.69;;;30.46;33.14
16100;BME280;8154;50.830;12.082;2023-06-14T08:29:23;99509.81;;;30.46;32.68
16100;BME280;8154;50.830;12.082;2023-06-14T08:31:49;99510.03;;;30.44;32.91
16100;BME280;8154;50.830;12.082;2023-06-14T08:34:15;99503.38;;;30.47;32.80
16100;BME280;8154;50.830;12.082;2023-06-14T08:36:41;99512.84;;;30.50;32.65
16100;BME280;8154;50.830;12.082;2023-06-14T08:39:08;99497.97;;;30.47;33.08
16100;BME280;8154;50.830;12.082;2023-06-14T08:41:35;99504.19;;;30.48;32.73
16100;BME280;8154;50.830;12.082;2023-06-14T08:44:03;99497.38;;;30.45;32.77
16100;BME280;8154;50.830;12.082;2023-06-14T08:46:32;99504.66;;;30.44;33.11
16100;BME280;8154;50.830;12.082;2023-06-14T08:49:01;99505.00;;;30.48;32.95
16100;BME280;8154;50.830;12.082;2023-06-14T08:51:30;99501.75;;;30.46;32.69
16100;BME280;8154;50.830;12.082;2023-06-14T08:54:00;99504.66;;;30.44;32.75
16100;BME280;8154;50.830;12.082;2023-06-14T08:56:28;99504.66;;;30.44;32.80
16100;BME280;8154;50.830;12.082;2023-06-14T08:58:59;99506.53;;;30.44;32.82
16100;BME280;8154;50.830;12.082;2023-06-14T09:01:38;99502.53;;;30.47;33.09
16100;BME280;8154;50.830;12.082;2023-06-14T09:04:05;99497.38;;;30.45;33.07
16100;BME280;8154;50.830;12.082;2023-06-14T09:06:31;99503.84;;;30.44;33.14
16100;BME280;8154;50.830;12.082;2023-06-14T09:08:58;99507.59;;;30.43;33.18
16100;BME280;8154;50.830;12.082;2023-06-14T09:11:25;99504.88;;;30.43;33.23
16100;BME280;8154;50.830;12.082;2023-06-14T09:13:54;99514.63;;;30.44;32.89
16100;BME280;8154;50.830;12.082;2023-06-14T09:16:21;99512.19;;;30.42;32.93
16100;BME280;8154;50.830;12.082;2023-06-14T09:18:47;99516.84;;;30.47;33.14
16100;BME280;8154;50.830;12.082;2023-06-14T09:21:15;99517.91;;;30.46;33.11
16100;BME280;8154;50.830;12.082;2023-06-14T09:23:43;99521.16;;;30.48;33.18
16100;BME280;8154;50.830;12.082;2023-06-14T09:26:10;99523.06;;;30.48;32.80
16100;BME280;8154;50.830;12.082;2023-06-14T09:28:47;99526.31;;;30.50;33.02
16100;BME280;8154;50.830;12.082;2023-06-14T09:31:15;99521.41;;;30.47;33.06
16100;BME280;8154;50.830;12.082;2023-06-14T09:33:45;99520.94;;;30.50;33.05
16100;BME280;8154;50.830;12.082;2023-06-14T09:36:22;99521.41;;;30.47;32.88
16100;BME280;8154;50.830;12.082;2023-06-14T09:38:58;99521.66;;;30.45;33.20
16100;BME280;8154;50.830;12.082;2023-06-14T09:41:34;99521.16;;;30.48;32.74
16100;BME280;8154;50.830;12.082;2023-06-14T09:44:02;99520.63;;;30.46;32.79
16100;BME280;8154;50.830;12.082;2023-06-14T09:46:30;99514.16;;;30.47;32.84
16100;BME280;8154;50.830;12.082;2023-06-14T09:48:57;99526.56;;;30.48;32.76
16100;BME280;8154;50.830;12.082;2023-06-14T09:51:23;99520.63;;;30.46;32.69
16100;BME280;8154;50.830;12.082;2023-06-14T09:53:50;99506.06;;;30.47;32.80
16100;BME280;8154;50.830;12.082;2023-06-14T09:56:37;99514.97;;;30.48;32.62
16100;BME280;8154;50.830;12.082;2023-06-14T09:59:05;99524.47;;;30.50;32.53
16100;BME280;8154;50.830;12.082;2023-06-14T10:01:34;99516.13;;;30.52;33.00
16100;BME280;8154;50.830;12.082;2023-06-14T10:04:03;99509.66;;;30.53;32.85
16100;BME280;8154;50.830;12.082;2023-06-14T10:06:30;99507.78;;;30.53;32.45
16100;BME280;8154;50.830;12.082;2023-06-14T10:08:58;99516.97;;;30.52;32.87
16100;BME280;8154;50.830;12.082;2023-06-14T10:11:28;99517.50;;;30.54;32.43
16100;BME280;8154;50.830;12.082;2023-06-14T10:13:56;99513.66;;;30.50;32.91
16100;BME280;8154;50.830;12.082;2023-06-14T10:16:34;99523.63;;;30.50;32.69
16100;BME280;8154;50.830;12.082;2023-06-14T10:24:42;99510.00;;;30.56;32.39
16100;BME280;8154;50.830;12.082;2023-06-14T10:27:09;99509.53;;;30.59;32.37
16100;BME280;8154;50.830;12.082;2023-06-14T10:32:25;99510.13;;;30.61;32.64
16100;BME280;8154;50.830;12.082;2023-06-14T10:35:00;99504.72;;;30.61;32.30
16100;BME280;8154;50.830;12.082;2023-06-14T10:37:26;99503.16;;;30.65;32.18
16100;BME280;8154;50.830;12.082;2023-06-14T10:39:53;99503.88;;;30.61;32.57
16100;BME280;8154;50.830;12.082;2023-06-14T10:42:19;99504.97;;;30.60;32.34
16100;BME280;8154;50.830;12.082;2023-06-14T10:44:50;99503.06;;;30.60;32.24
16100;BME280;8154;50.830;12.082;2023-06-14T10:47:34;99505.50;;;30.62;32.58
16100;BME280;8154;50.830;12.082;2023-06-14T10:50:06;99501.78;;;30.63;32.39
16100;BME280;8154;50.830;12.082;2023-06-14T10:52:43;99494.47;;;30.63;32.18
16100;BME280;8154;50.830;12.082;2023-06-14T10:55:14;99499.88;;;30.63;32.16
16100;BME280;8154;50.830;12.082;2023-06-14T10:57:48;99493.34;;;30.59;32.24
16100;BME280;8154;50.830;12.082;2023-06-14T11:00:23;99493.94;;;30.61;32.18
16100;BME280;8154;50.830;12.082;2023-06-14T11:02:52;99498.25;;;30.62;32.22
16100;BME280;8154;50.830;12.082;2023-06-14T11:05:26;99495.56;;;30.62;32.16
16100;BME280;8154;50.830;12.082;2023-06-14T11:10:39;99491.34;;;30.66;31.87
16100;BME280;8154;50.830;12.082;2023-06-14T11:13:06;99484.75;;;30.62;32.12
16100;BME280;8154;50.830;12.082;2023-06-14T11:15:37;99487.69;;;30.61;32.23
16100;BME280;8154;50.830;12.082;2023-06-14T11:18:08;99487.69;;;30.61;32.36
16100;BME280;8154;50.830;12.082;2023-06-14T11:20:37;99491.78;;;30.63;32.21
16100;BME280;8154;50.830;12.082;2023-06-14T11:23:04;99491.00;;;30.63;32.35
16100;BME280;8154;50.830;12.082;2023-06-14T11:25:31;99478.78;;;30.60;32.04
16100;BME280;8154;50.830;12.082;2023-06-14T11:27:57;99486.88;;;30.60;31.93
16100;BME280;8154;50.830;12.082;2023-06-14T11:30:23;99485.00;;;30.61;32.25
16100;BME280;8154;50.830;12.082;2023-06-14T11:32:52;99485.25;;;30.59;32.25
16100;BME280;8154;50.830;12.082;2023-06-14T11:35:21;99484.19;;;30.60;31.94
16100;BME280;8154;50.830;12.082;2023-06-14T11:37:52;99489.31;;;30.62;31.83
16100;BME280;8154;50.830;12.082;2023-06-14T11:40:18;99483.13;;;30.61;32.18
16100;BME280;8154;50.830;12.082;2023-06-14T11:42:45;99476.66;;;30.62;32.09
16100;BME280;8154;50.830;12.082;2023-06-14T11:45:11;99480.44;;;30.61;32.07
16100;BME280;8154;50.830;12.082;2023-06-14T11:47:39;99479.38;;;30.62;31.93
16100;BME280;8154;50.830;12.082;2023-06-14T11:50:07;99483.38;;;30.60;31.72
16100;BME280;8154;50.830;12.082;2023-06-14T11:52:37;99479.84;;;30.59;32.07
16100;BME280;8154;50.830;12.082;2023-06-14T11:55:04;99482.31;;;30.61;32.04
16100;BME280;8154;50.830;12.082;2023-06-14T11:57:35;99472.84;;;30.58;31.80
16100;BME280;8154;50.830;12.082;2023-06-14T12:00:07;99467.44;;;30.58;31.82
16100;BME280;8154;50.830;12.082;2023-06-14T12:02:38;99466.38;;;30.59;32.06
16100;BME280;8154;50.830;12.082;2023-06-14T12:05:08;99461.56;;;30.61;31.82
16100;BME280;8154;50.830;12.082;2023-06-14T12:07:39;99454.19;;;30.57;32.23
16100;BME280;8154;50.830;12.082;2023-06-14T12:10:09;99456.66;;;30.58;32.03
16100;BME280;8154;50.830;12.082;2023-06-14T12:12:39;99457.44;;;30.59;31.97
16100;BME280;8154;50.830;12.082;2023-06-14T12:15:07;99462.03;;;30.58;32.09
16100;BME280;8154;50.830;12.082;2023-06-14T12:17:35;99462.03;;;30.58;32.04
16100;BME280;8154;50.830;12.082;2023-06-14T12:20:12;99462.03;;;30.58;32.04
16100;BME280;8154;50.830;12.082;2023-06-14T12:28:08;99460.97;;;30.59;31.54
16100;BME280;8154;50.830;12.082;2023-06-14T12:30:36;99451.25;;;30.58;31.85
16100;BME280;8154;50.830;12.082;2023-06-14T12:33:05;99450.19;;;30.59;31.82
16100;BME280;8154;50.830;12.082;2023-06-14T12:35:33;99447.22;;;30.61;31.57
16100;BME280;8154;50.830;12.082;2023-06-14T12:37:59;99459.34;;;30.58;31.94
16100;BME280;8154;50.830;12.082;2023-06-14T12:40:26;99451.25;;;30.58;31.77
16100;BME280;8154;50.830;12.082;2023-06-14T12:42:52;99456.88;;;30.57;31.76
16100;BME280;8154;50.830;12.082;2023-06-14T12:45:18;99448.78;;;30.57;31.75
16100;BME280;8154;50.830;12.082;2023-06-14T12:47:44;99451.25;;;30.58;31.97
16100;BME280;8154;50.830;12.082;2023-06-14T12:50:11;99449.59;;;30.57;31.90
16100;BME280;8154;50.830;12.082;2023-06-14T12:52:37;99447.13;;;30.56;31.96
16100;BME280;8154;50.830;12.082;2023-06-14T12:55:06;99446.34;;;30.55;31.80
16100;BME280;8154;50.830;12.082;2023-06-14T12:57:32;99452.88;;;30.59;31.84
16100;BME280;8154;50.830;12.082;2023-06-14T13:00:00;99449.03;;;30.55;31.64
16100;BME280;8154;50.830;12.082;2023-06-14T13:02:26;99454.69;;;30.54;31.55
16100;BME280;8154;50.830;12.082;2023-06-14T13:04:52;99447.38;;;30.54;31.46
16100;BME280;8154;50.830;12.082;2023-06-14T13:07:18;99448.22;;;30.55;31.58
16100;BME280;8154;50.830;12.082;2023-06-14T13:09:45;99443.88;;;30.54;31.45
16100;BME280;8154;50.830;12.082;2023-06-14T13:12:11;99447.13;;;30.56;31.80
16100;BME280;8154;50.830;12.082;2023-06-14T13:14:39;99450.66;;;30.56;31.50
16100;BME280;8154;50.830;12.082;2023-06-14T13:17:09;99449.28;;;30.54;31.38
16100;BME280;8154;50.830;12.082;2023-06-14T13:19:36;99451.72;;;30.55;31.67
16100;BME280;8154;50.830;12.082;2023-06-14T13:22:02;99452.78;;;30.54;31.65
16100;BME280;8154;50.830;12.082;2023-06-14T13:24:29;99455.22;;;30.56;31.57